sensor_id;sensor_type;location;lat;lon;timestamp;temperature;humidity
32787;DHT22;19139;49.372;8.580;2024-02-21T00:00:07;8.90;99.90
32787;DHT22;19139;49.372;8.580;2024-02-21T00:02:34;8.90;99.90
32787;DHT22;19139;49.372;8.580;2024-02-21T00:05:00;8.90;99.90
32787;DHT22;19139;49.372;8.580;2024-02-21T00:07:27;8.80;99.90
32787;DHT22;19139;49.372;8.580;2024-02-21T00:09:54;8.80;99.90
32787;DHT22;19139;49.372;8.580;2024-02-21T00:12:21;8.80;99.90
32787;DHT22;19139;49.372;8.580;2024-02-21T00:14:48;8.80;99.90
32787;DHT22;19139;49.372;8.580;2024-02-21T00:17:15;8.90;99.90
32787;DHT22;19139;49.372;8.580;2024-02-21T00:19:41;8.90;99.90
32787;DHT22;19139;49.372;8.580;2024-02-21T00:22:08;8.90;99.90
32787;DHT22;19139;49.372;8.580;2024-02-21T00:24:35;8.90;99.90
32787;DHT22;19139;49.372;8.580;2024-02-21T00:27:01;8.90;99.90
32787;DHT22;19139;49.372;8.580;2024-02-21T00:29:28;8.90;99.90
32787;DHT22;19139;49.372;8.580;2024-02-21T00:31:55;8.90;99.90
32787;DHT22;19139;49.372;8.580;2024-02-21T00:34:22;8.90;99.90
32787;DHT22;19139;49.372;8.580;2024-02-21T00:36:49;8.90;99.90
32787;DHT22;19139;49.372;8.580;2024-02-21T00:39:16;8.90;99.90
32787;DHT22;19139;49.372;8.580;2024-02-21T00:41:43;8.90;99.90
32787;DHT22;19139;49.372;8.580;2024-02-21T00:44:10;8.90;99.90
32787;DHT22;19139;49.372;8.580;2024-02-21T00:46:36;8.90;99.90
32787;DHT22;19139;49.372;8.580;2024-02-21T00:49:05;8.90;99.90
32787;DHT22;19139;49.372;8.580;2024-02-21T00:51:32;8.90;99.90
32787;DHT22;19139;49.372;8.580;2024-02-21T00:53:59;8.90;99.90
32787;DHT22;19139;49.372;8.580;2024-02-21T00:56:26;8.90;99.90
32787;DHT22;19139;49.372;8.580;2024-02-21T00:58:52;8.80;99.90
32787;DHT22;19139;49.372;8.580;2024-02-21T01:01:23;8.90;99.90
32787;DHT22;19139;49.372;8.580;2024-02-21T01:03:50;8.80;99.90
32787;DHT22;19139;49.372;8.580;2024-02-21T01:06:20;8.90;99.90
32787;DHT22;19139;49.372;8.580;2024-02-21T01:08:47;8.90;99.90
32787;DHT22;19139;49.372;8.580;2024-02-21T01:11:15;8.90;99.90
32787;DHT22;19139;49.372;8.580;2024-02-21T01:13:42;8.90;99.90
32787;DHT22;19139;49.372;8.580;2024-02-21T01:16:09;8.80;99.90
32787;DHT22;19139;49.372;8.580;2024-02-21T01:18:39;8.80;99.90
32787;DHT22;19139;49.372;8.580;2024-02-21T01:21:07;8.70;99.90
32787;DHT22;19139;49.372;8.580;2024-02-21T01:23:35;8.70;99.90
32787;DHT22;19139;49.372;8.580;2024-02-21T01:26:02;8.70;99.90
32787;DHT22;19139;49.372;8.580;2024-02-21T01:28:29;8.70;99.90
32787;DHT22;19139;49.372;8.580;2024-02-21T01:30:56;8.70;99.90
32787;DHT22;19139;49.372;8.580;2024-02-21T01:33:22;8.70;99.90
32787;DHT22;19139;49.372;8.580;2024-02-21T01:35:49;8.70;99.90
32787;DHT22;19139;49.372;8.580;2024-02-21T01:38:16;8.60;99.90
32787;DHT22;19139;49.372;8.580;2024-02-21T01:40:43;8.60;99.90
32787;DHT22;19139;49.372;8.580;2024-02-21T01:43:17;8.60;99.90
32787;DHT22;19139;49.372;8.580;2024-02-21T01:45:55;8.60;99.90
32787;DHT22;19139;49.372;8.580;2024-02-21T01:48:23;8.60;99.90
32787;DHT22;19139;49.372;8.580;2024-02-21T01:50:51;8.60;99.90
32787;DHT22;19139;49.372;8.580;2024-02-21T01:53:20;8.60;99.90
32787;DHT22;19139;49.372;8.580;2024-02-21T01:55:48;8.60;99.90
32787;DHT22;19139;49.372;8.580;2024-02-21T01:58:15;8.60;99.90
32787;DHT22;19139;49.372;8.580;2024-02-21T02:00:43;8.60;99.90
32787;DHT22;19139;49.372;8.580;2024-02-21T02:03:11;8.60;99.90
32787;DHT22;19139;49.372;8.580;2024-02-21T02:05:49;8.60;99.90
32787;DHT22;19139;49.372;8.580;2024-02-21T02:08:19;8.60;99.90
32787;DHT22;19139;49.372;8.580;2024-02-21T02:10:46;8.60;99.90
32787;DHT22;19139;49.372;8.580;2024-02-21T02:13:13;8.50;99.90
32787;DHT22;19139;49.372;8.580;2024-02-21T02:15:41;8.50;99.90
32787;DHT22;19139;49.372;8.580;2024-02-21T02:18:08;8.50;99.90
32787;DHT22;19139;49.372;8.580;2024-02-21T02:20:36;8.50;99.90
32787;DHT22;19139;49.372;8.580;2024-02-21T02:23:11;8.50;99.90
32787;DHT22;19139;49.372;8.580;2024-02-21T02:25:39;8.50;99.90
32787;DHT22;19139;49.372;8.580;2024-02-21T02:28:06;8.50;99.90
32787;DHT22;19139;49.372;8.580;2024-02-21T02:30:36;8.50;99.90
32787;DHT22;19139;49.372;8.580;2024-02-21T02:33:04;8.40;99.90
32787;DHT22;19139;49.372;8.580;2024-02-21T02:35:31;8.40;99.90
32787;DHT22;19139;49.372;8.580;2024-02-21T02:37:58;8.30;99.90
32787;DHT22;19139;49.372;8.580;2024-02-21T02:40:25;8.30;99.90
32787;DHT22;19139;49.372;8.580;2024-02-21T02:42:52;8.30;99.90
32787;DHT22;19139;49.372;8.580;2024-02-21T02:45:22;8.40;99.90
32787;DHT22;19139;49.372;8.580;2024-02-21T02:47:56;8.40;99.90
32787;DHT22;19139;49.372;8.580;2024-02-21T02:50:24;8.30;99.90
32787;DHT22;19139;49.372;8.580;2024-02-21T02:52:51;8.30;99.90
32787;DHT22;19139;49.372;8.580;2024-02-21T02:55:19;8.20;99.90
32787;DHT22;19139;49.372;8.580;2024-02-21T02:57:46;8.30;99.90
32787;DHT22;19139;49.372;8.580;2024-02-21T03:00:13;8.20;99.90
32787;DHT22;19139;49.372;8.580;2024-02-21T03:02:44;8.20;99.90
32787;DHT22;19139;49.372;8.580;2024-02-21T03:05:14;8.30;99.90
32787;DHT22;19139;49.372;8.580;2024-02-21T03:07:42;8.20;99.90
32787;DHT22;19139;49.372;8.580;2024-02-21T03:10:10;8.30;99.90
32787;DHT22;19139;49.372;8.580;2024-02-21T03:12:38;8.20;99.90
32787;DHT22;19139;49.372;8.580;2024-02-21T03:15:05;8.20;99.90
32787;DHT22;19139;49.372;8.580;2024-02-21T03:17:33;8.20;99.90
32787;DHT22;19139;49.372;8.580;2024-02-21T03:20:03;8.10;99.90
32787;DHT22;19139;49.372;8.580;2024-02-21T03:22:39;8.10;99.90
32787;DHT22;19139;49.372;8.580;2024-02-21T03:25:06;8.10;99.90
32787;DHT22;19139;49.372;8.580;2024-02-21T03:27:34;8.10;99.90
32787;DHT22;19139;49.372;8.580;2024-02-21T03:30:00;8.10;99.90
32787;DHT22;19139;49.372;8.580;2024-02-21T03:32:27;8.10;99.90
32787;DHT22;19139;49.372;8.580;2024-02-21T03:34:55;8.10;99.90
32787;DHT22;19139;49.372;8.580;2024-02-21T03:37:22;8.10;99.90
32787;DHT22;19139;49.372;8.580;2024-02-21T03:39:49;8.10;99.90
32787;DHT22;19139;49.372;8.580;2024-02-21T03:42:15;8.10;99.90
32787;DHT22;19139;49.372;8.580;2024-02-21T03:44:42;8.10;99.90
32787;DHT22;19139;49.372;8.580;2024-02-21T03:47:09;8.10;99.90
32787;DHT22;19139;49.372;8.580;2024-02-21T03:49:38;8.00;99.90
32787;DHT22;19139;49.372;8.580;2024-02-21T03:52:05;8.00;99.90
32787;DHT22;19139;49.372;8.580;2024-02-21T03:54:32;8.00;99.90
32787;DHT22;19139;49.372;8.580;2024-02-21T03:56:58;7.90;99.90
32787;DHT22;19139;49.372;8.580;2024-02-21T03:59:25;8.00;99.90
32787;DHT22;19139;49.372;8.580;2024-02-21T04:01:52;8.00;99.90
32787;DHT22;19139;49.372;8.580;2024-02-21T04:04:20;8.00;99.90
32787;DHT22;19139;49.372;8.580;2024-02-21T04:06:48;7.90;99.90
32787;DHT22;19139;49.372;8.580;2024-02-21T04:09:15;7.90;99.90
32787;DHT22;19139;49.372;8.580;2024-02-21T04:11:41;7.90;99.90
32787;DHT22;19139;49.372;8.580;2024-02-21T04:14:08;7.90;99.90
32787;DHT22;19139;49.372;8.580;2024-02-21T04:16:35;7.80;99.90
32787;DHT22;19139;49.372;8.580;2024-02-21T04:19:02;7.80;99.90
32787;DHT22;19139;49.372;8.580;2024-02-21T04:21:29;7.80;99.90
32787;DHT22;19139;49.372;8.580;2024-02-21T04:23:55;7.70;99.90
32787;DHT22;19139;49.372;8.580;2024-02-21T04:26:22;7.60;99.90
32787;DHT22;19139;49.372;8.580;2024-02-21T04:28:49;7.50;99.90
32787;DHT22;19139;49.372;8.580;2024-02-21T09:38:42;9.90;99.90
32787;DHT22;19139;49.372;8.580;2024-02-21T09:41:18;10.20;99.90
32787;DHT22;19139;49.372;8.580;2024-02-21T09:43:52;10.10;99.90
32787;DHT22;19139;49.372;8.580;2024-02-21T09:46:26;10.10;99.90
32787;DHT22;19139;49.372;8.580;2024-02-21T09:49:13;10.20;99.90
32787;DHT22;19139;49.372;8.580;2024-02-21T09:51:45;10.00;99.90
32787;DHT22;19139;49.372;8.580;2024-02-21T09:54:12;10.30;99.90
32787;DHT22;19139;49.372;8.580;2024-02-21T09:56:45;10.40;99.90
32787;DHT22;19139;49.372;8.580;2024-02-21T09:59:16;10.40;99.90
32787;DHT22;19139;49.372;8.580;2024-02-21T10:01:43;10.40;99.90
32787;DHT22;19139;49.372;8.580;2024-02-21T10:04:13;10.50;99.90
32787;DHT22;19139;49.372;8.580;2024-02-21T22:03:56;10.80;99.90
32787;DHT22;19139;49.372;8.580;2024-02-21T22:06:22;10.80;99.90
32787;DHT22;19139;49.372;8.580;2024-02-21T22:08:49;10.90;99.90
32787;DHT22;19139;49.372;8.580;2024-02-21T22:11:18;10.90;99.90
32787;DHT22;19139;49.372;8.580;2024-02-21T22:13:45;10.90;99.90
32787;DHT22;19139;49.372;8.580;2024-02-21T22:16:13;11.00;99.90
32787;DHT22;19139;49.372;8.580;2024-02-21T22:18:41;11.00;99.90
32787;DHT22;19139;49.372;8.580;2024-02-21T22:21:08;11.10;99.90
32787;DHT22;19139;49.372;8.580;2024-02-21T22:23:35;11.10;99.90
32787;DHT22;19139;49.372;8.580;2024-02-21T22:26:06;11.20;99.90
32787;DHT22;19139;49.372;8.580;2024-02-21T22:28:33;11.10;99.90
32787;DHT22;19139;49.372;8.580;2024-02-21T22:30:59;11.20;99.90
32787;DHT22;19139;49.372;8.580;2024-02-21T22:33:26;11.10;99.90
32787;DHT22;19139;49.372;8.580;2024-02-21T22:35:53;11.10;99.90
32787;DHT22;19139;49.372;8.580;2024-02-21T22:38:20;11.10;99.90
32787;DHT22;19139;49.372;8.580;2024-02-21T22:40:46;11.00;99.90
32787;DHT22;19139;49.372;8.580;2024-02-21T22:43:13;11.00;99.90
32787;DHT22;19139;49.372;8.580;2024-02-21T22:45:40;11.00;99.90
32787;DHT22;19139;49.372;8.580;2024-02-21T22:48:07;11.00;99.90
32787;DHT22;19139;49.372;8.580;2024-02-21T22:50:34;11.00;99.90
32787;DHT22;19139;49.372;8.580;2024-02-21T22:53:00;10.90;99.90
32787;DHT22;19139;49.372;8.580;2024-02-21T22:55:27;10.90;99.90
32787;DHT22;19139;49.372;8.580;2024-02-21T22:57:55;10.90;99.90
32787;DHT22;19139;49.372;8.580;2024-02-21T23:00:22;10.80;99.90
32787;DHT22;19139;49.372;8.580;2024-02-21T23:02:50;10.80;99.90
32787;DHT22;19139;49.372;8.580;2024-02-21T23:05:17;10.70;99.90
32787;DHT22;19139;49.372;8.580;2024-02-21T23:07:49;10.70;99.90
32787;DHT22;19139;49.372;8.580;2024-02-21T23:10:16;10.60;99.90
32787;DHT22;19139;49.372;8.580;2024-02-21T23:12:44;10.60;99.90
32787;DHT22;19139;49.372;8.580;2024-02-21T23:15:10;10.50;99.90
32787;DHT22;19139;49.372;8.580;2024-02-21T23:17:37;10.50;99.90
32787;DHT22;19139;49.372;8.580;2024-02-21T23:20:04;10.40;99.90
32787;DHT22;19139;49.372;8.580;2024-02-21T23:22:34;10.50;99.90
32787;DHT22;19139;49.372;8.580;2024-02-21T23:25:01;10.40;99.90
32787;DHT22;19139;49.372;8.580;2024-02-21T23:27:29;10.40;99.90
32787;DHT22;19139;49.372;8.580;2024-02-21T23:29:56;10.40;99.90
32787;DHT22;19139;49.372;8.580;2024-02-21T23:32:23;10.30;99.90
32787;DHT22;19139;49.372;8.580;2024-02-21T23:34:50;10.30;99.90
32787;DHT22;19139;49.372;8.580;2024-02-21T23:37:17;10.30;99.90
32787;DHT22;19139;49.372;8.580;2024-02-21T23:39:44;10.20;99.90
32787;DHT22;19139;49.372;8.580;2024-02-21T23:42:11;10.30;99.90
32787;DHT22;19139;49.372;8.580;2024-02-21T23:44:37;10.20;99.90
32787;DHT22;19139;49.372;8.580;2024-02-21T23:47:04;10.30;99.90
32787;DHT22;19139;49.372;8.580;2024-02-21T23:49:31;10.20;99.90
32787;DHT22;19139;49.372;8.580;2024-02-21T23:51:58;10.10;99.90
32787;DHT22;19139;49.372;8.580;2024-02-21T23:54:26;10.10;99.90
32787;DHT22;19139;49.372;8.580;2024-02-21T23:56:53;10.00;99.90
32787;DHT22;19139;49.372;8.580;2024-02-21T23:59:20;9.90;99.90
